^^
Meteo Knjazevac Station Historical Data
Daily Summary for May 24, 2022 Units:  English    Metric   Both
Daily Weekly Monthly Yearly Custom
  High: Low: Average:
Temperature: 81.5 °F 58.3 °F 68.3 °F
Dew Point: 63.3 °F 51.6 °F 56.9 °F
Humidity: 83% 54% 68%
Wind Speed: 8mph 0mph 2.5mph
Wind Gust: 16mph - -
Wind- - SSE
Pressure: 30.00 in 29.91 in -
Precipitation: 0.00 in    
Historical Graphs
 
 
Tabular Data for May 24, 2022
Time Temperature Dew Point Pressure Wind Wind Speed Wind Gust Humidity Rainfall Rate (Hourly) solar Conditions
00:00 62.1 °F 52.2 °F 29.92 in Calm   2 mph 70% 0.00 in 0 W/m2
00:10 62.1 °F 52.9 °F 29.92 in West 1 mph 3 mph 72% 0.00 in 0 W/m2
00:20 61.9 °F 52.8 °F 29.92 in West 2 mph 4 mph 72% 0.00 in 0 W/m2
00:30 61.8 °F 52.7 °F 29.91 in WSW 1 mph 3 mph 72% 0.00 in 0 W/m2
00:40 61.7 °F 53 °F 29.92 in WNW 2 mph 3 mph 73% 0.00 in 0 W/m2
00:50 61.7 °F 53 °F 29.91 in Calm   3 mph 73% 0.00 in 0 W/m2
01:00 61.7 °F 53 °F 29.92 in NNW 1 mph 2 mph 73% 0.00 in 0 W/m2
01:10 61.7 °F 53 °F 29.92 in NNW 1 mph 2 mph 73% 0.00 in 0 W/m2
01:20 61.5 °F 53.2 °F 29.92 in Calm   2 mph 74% 0.00 in 0 W/m2
01:30 61.3 °F 53 °F 29.92 in WSW 1 mph 2 mph 74% 0.00 in 0 W/m2
01:40 61 °F 52.6 °F 29.92 in Calm   2 mph 74% 0.00 in 0 W/m2
01:50 60.9 °F 52.9 °F 29.92 in Calm   1 mph 75% 0.00 in 0 W/m2
02:00 60.8 °F 52.8 °F 29.92 in Calm   1 mph 75% 0.00 in 0 W/m2
02:10 60.6 °F 52.6 °F 29.92 in Calm     75% 0.00 in 0 W/m2
02:20 60.4 °F 52.5 °F 29.92 in Calm   1 mph 75% 0.00 in 0 W/m2
02:30 60.4 °F 52.5 °F 29.92 in Calm   1 mph 75% 0.00 in 0 W/m2
02:40 60.4 °F 53.2 °F 29.92 in Calm   1 mph 77% 0.00 in 0 W/m2
02:50 60.4 °F 53.2 °F 29.92 in Calm     77% 0.00 in 0 W/m2
03:00 60.6 °F 53.4 °F 29.92 in Calm   2 mph 77% 0.00 in 0 W/m2
03:10 60.6 °F 53.4 °F 29.92 in NE 1 mph 3 mph 77% 0.00 in 0 W/m2
03:20 60.6 °F 53.4 °F 29.92 in NNE 2 mph 2 mph 77% 0.00 in 0 W/m2
03:30 60.6 °F 53.4 °F 29.92 in Calm   2 mph 77% 0.00 in 0 W/m2
03:40 60.4 °F 53.5 °F 29.92 in Calm   2 mph 78% 0.00 in 0 W/m2
03:50 60.3 °F 53.4 °F 29.92 in Calm   2 mph 78% 0.00 in 0 W/m2
04:00 60.2 °F 53.3 °F 29.93 in Calm   2 mph 78% 0.00 in 0 W/m2
04:10 60.1 °F 53.2 °F 29.92 in Calm   2 mph 78% 0.00 in 0 W/m2
04:20 60.1 °F 53.5 °F 29.92 in Calm   2 mph 79% 0.00 in 0 W/m2
04:30 60.1 °F 53.2 °F 29.92 in Calm     78% 0.00 in 0 W/m2
04:40 59.7 °F 53.1 °F 29.92 in NNE 1 mph 2 mph 79% 0.00 in 0 W/m2
04:50 59.2 °F 52.7 °F 29.93 in NNE 2 mph 3 mph 79% 0.00 in 0 W/m2
05:00 58.8 °F 52.3 °F 29.93 in North 1 mph 3 mph 79% 0.00 in 3 W/m2
05:10 58.5 °F 52.3 °F 29.93 in North 1 mph 2 mph 80% 0.00 in 8 W/m2
05:20 58.5 °F 52.6 °F 29.93 in Calm   2 mph 81% 0.00 in 14 W/m2
05:30 58.3 °F 52.5 °F 29.94 in Calm   2 mph 81% 0.00 in 22 W/m2
05:40 58.3 °F 53.1 °F 29.94 in NNE 2 mph 5 mph 83% 0.00 in 33 W/m2
05:50 58.5 °F 53.3 °F 29.94 in NNE 1 mph 4 mph 83% 0.00 in 42 W/m2
06:00 58.5 °F 52.3 °F 29.95 in Calm   5 mph 80% 0.00 in 46 W/m2
06:10 58.6 °F 51.8 °F 29.95 in NE 3 mph 7 mph 78% 0.00 in 50 W/m2
06:20 58.6 °F 51.8 °F 29.95 in NNE 1 mph 6 mph 78% 0.00 in 61 W/m2
06:30 58.5 °F 51.6 °F 29.96 in North 2 mph 5 mph 78% 0.00 in 84 W/m2
06:40 58.5 °F 51.6 °F 29.96 in NNE 1 mph 9 mph 78% 0.00 in 58 W/m2
06:50 58.6 °F 51.8 °F 29.97 in North 2 mph 6 mph 78% 0.00 in 89 W/m2
07:00 59 °F 52.1 °F 29.97 in North 1 mph 7 mph 78% 0.00 in 101 W/m2
07:10 59.4 °F 52.5 °F 29.97 in North 1 mph 6 mph 78% 0.00 in 215 W/m2
07:20 59.6 °F 52.4 °F 29.97 in NNE 3 mph 10 mph 77% 0.00 in 231 W/m2
07:30 59.9 °F 52.7 °F 29.97 in North 5 mph 8 mph 77% 0.00 in 269 W/m2
07:40 60.1 °F 52.8 °F 29.97 in NNE 3 mph 9 mph 77% 0.00 in 229 W/m2
07:50 60.3 °F 52.3 °F 29.97 in North 3 mph 9 mph 75% 0.00 in 228 W/m2
08:00 60.6 °F 52.6 °F 29.97 in North 5 mph 8 mph 75% 0.00 in 242 W/m2
08:10 61 °F 53 °F 29.97 in North 1 mph 11 mph 75% 0.00 in 228 W/m2
08:20 61.6 °F 53.6 °F 29.97 in NNE 3 mph 9 mph 75% 0.00 in 438 W/m2
08:30 62.9 °F 54.4 °F 29.97 in NNE 3 mph 8 mph 74% 0.00 in 453 W/m2
08:40 64 °F 54.8 °F 29.97 in North 5 mph 12 mph 72% 0.00 in 515 W/m2
08:50 64.9 °F 54.9 °F 29.97 in NNE 7 mph 11 mph 70% 0.00 in 516 W/m2
09:00 65.6 °F 55.1 °F 29.97 in NNE 3 mph 10 mph 69% 0.00 in 422 W/m2
09:10 65.8 °F 55 °F 29.97 in NNE 2 mph 10 mph 68% 0.00 in 301 W/m2
09:20 66.3 °F 55.4 °F 29.97 in North 3 mph 10 mph 68% 0.00 in 632 W/m2
09:30 67.1 °F 55.8 °F 29.97 in NNE 2 mph 9 mph 67% 0.00 in 697 W/m2
09:40 67.2 °F 55 °F 29.97 in NNE 2 mph 8 mph 65% 0.00 in 373 W/m2
09:50 67.6 °F 55.5 °F 29.96 in North 2 mph 6 mph 65% 0.00 in 573 W/m2
10:00 68.2 °F 55.1 °F 29.96 in NE 3 mph 7 mph 63% 0.00 in 671 W/m2
10:20 68.9 °F 56.2 °F 29.97 in NE 1 mph 9 mph 64% 0.00 in 483 W/m2
10:30 69.4 °F 56.3 °F 29.97 in North 2 mph 7 mph 63% 0.00 in 332 W/m2
10:40 69.6 °F 56.5 °F 29.97 in North 5 mph 8 mph 63% 0.00 in 450 W/m2
10:50 70 °F 56.8 °F 29.97 in NNE 2 mph 12 mph 63% 0.00 in 400 W/m2
11:00 70.3 °F 57.1 °F 29.98 in North 6 mph 14 mph 63% 0.00 in 406 W/m2
11:10 70.5 °F 57.3 °F 29.97 in North 6 mph 14 mph 63% 0.00 in 358 W/m2
11:20 70.7 °F 57.5 °F 29.97 in North 5 mph 13 mph 63% 0.00 in 564 W/m2
11:30 71.4 °F 57.7 °F 29.97 in North 6 mph 11 mph 62% 0.00 in 548 W/m2
11:40 71.9 °F 58.1 °F 29.97 in North 3 mph 11 mph 62% 0.00 in 946 W/m2
11:50 72.9 °F 58.7 °F 29.97 in NNE 6 mph 12 mph 61% 0.00 in 770 W/m2
12:00 73.8 °F 59.1 °F 29.97 in NNE 5 mph 13 mph 60% 0.00 in 956 W/m2
12:10 74.3 °F 59 °F 29.96 in North 2 mph 12 mph 59% 0.00 in 625 W/m2
12:20 74.8 °F 59.5 °F 29.96 in NNE 8 mph 12 mph 59% 0.00 in 892 W/m2
12:30 75.2 °F 59.4 °F 29.95 in NNE 6 mph 9 mph 58% 0.00 in 938 W/m2
12:40 75.6 °F 59.7 °F 29.95 in NNE 8 mph 16 mph 58% 0.00 in 660 W/m2
12:50 75.7 °F 59.9 °F 29.95 in NNE 6 mph 12 mph 58% 0.00 in 469 W/m2
13:00 76.6 °F 60.7 °F 29.95 in North 2 mph 13 mph 58% 0.00 in 466 W/m2
13:10 77.2 °F 60.8 °F 29.95 in NNE 5 mph 11 mph 57% 0.00 in 946 W/m2
13:20 77.9 °F 61.4 °F 29.94 in North 7 mph 13 mph 57% 0.00 in 938 W/m2
13:30 77.7 °F 61.3 °F 29.94 in NNE 3 mph 12 mph 57% 0.00 in 426 W/m2
13:40 78.2 °F 62.2 °F 29.94 in North 5 mph 9 mph 58% 0.00 in 918 W/m2
13:50 78.4 °F 62.4 °F 29.93 in NNW 2 mph 10 mph 58% 0.00 in 542 W/m2
14:00 78.6 °F 61.6 °F 29.93 in North 2 mph 11 mph 56% 0.00 in 550 W/m2
14:10 78.8 °F 62.3 °F 29.93 in NNE 5 mph 11 mph 57% 0.00 in 666 W/m2
14:20 79.2 °F 62.6 °F 29.93 in North 5 mph 12 mph 57% 0.00 in 862 W/m2
14:30 79.9 °F 62.3 °F 29.92 in NNE 2 mph 12 mph 55% 0.00 in 289 W/m2
14:40 79.3 °F 61.8 °F 29.92 in North 5 mph 10 mph 55% 0.00 in 825 W/m2
14:50 79.8 °F 62.7 °F 29.92 in NNE 5 mph 12 mph 56% 0.00 in 558 W/m2
15:00 80.3 °F 62.7 °F 29.92 in NNE 3 mph 12 mph 55% 0.00 in 749 W/m2
15:10 80.8 °F 63.1 °F 29.93 in NNE 3 mph 12 mph 55% 0.00 in 689 W/m2
15:20 80.6 °F 62.4 °F 29.93 in NNE 5 mph 9 mph 54% 0.00 in 431 W/m2
15:30 80.5 °F 62.9 °F 29.92 in North 3 mph 12 mph 55% 0.00 in 680 W/m2
15:40 80.2 °F 62.1 °F 29.92 in North 5 mph 9 mph 54% 0.00 in 251 W/m2
15:50 79.7 °F 62.1 °F 29.92 in North 5 mph 10 mph 55% 0.00 in 281 W/m2
16:00 79.8 °F 63.2 °F 29.92 in NNE 6 mph 11 mph 57% 0.00 in 635 W/m2
16:10 80.4 °F 62.8 °F 29.92 in NNE 6 mph 9 mph 55% 0.00 in 575 W/m2
16:20 80.8 °F 63.1 °F 29.92 in North 6 mph 9 mph 55% 0.00 in 550 W/m2
16:30 80.8 °F 63.1 °F 29.92 in North 2 mph 9 mph 55% 0.00 in 515 W/m2
16:40 81.1 °F 62.9 °F 29.92 in North 2 mph 10 mph 54% 0.00 in 475 W/m2
16:50 81.5 °F 63.3 °F 29.92 in North 3 mph 9 mph 54% 0.00 in 441 W/m2
17:00 81.4 °F 63.2 °F 29.92 in North 3 mph 12 mph 54% 0.00 in 407 W/m2
17:10 81.3 °F 63.1 °F 29.92 in North 5 mph 12 mph 54% 0.00 in 377 W/m2
17:20 81.3 °F 63.1 °F 29.92 in North 2 mph 9 mph 54% 0.00 in 278 W/m2
17:30 80.8 °F 62.6 °F 29.92 in North 5 mph 8 mph 54% 0.00 in 289 W/m2
17:40 80.4 °F 62.8 °F 29.92 in North 3 mph 9 mph 55% 0.00 in 285 W/m2
17:50 80.4 °F 62.8 °F 29.93 in NNW 2 mph 7 mph 55% 0.00 in 251 W/m2
18:00 80.2 °F 62.6 °F 29.93 in North 3 mph 9 mph 55% 0.00 in 189 W/m2
18:10 79.4 °F 61.8 °F 29.92 in North 5 mph 9 mph 55% 0.00 in 98 W/m2
18:20 78.1 °F 61.2 °F 29.92 in North 3 mph 8 mph 56% 0.00 in 85 W/m2
18:30 77.2 °F 60.8 °F 29.92 in NNW 3 mph 7 mph 57% 0.00 in 111 W/m2
18:40 76.8 °F 60.9 °F 29.92 in NNW 3 mph 8 mph 58% 0.00 in 123 W/m2
18:50 76.3 °F 60.9 °F 29.93 in NNW 2 mph 9 mph 59% 0.00 in 64 W/m2
19:00 75.4 °F 60.5 °F 29.93 in North 3 mph 7 mph 60% 0.00 in 46 W/m2
19:10 74.5 °F 59.7 °F 29.93 in North 5 mph 11 mph 60% 0.00 in 49 W/m2
19:20 73.8 °F 59.9 °F 29.93 in North 3 mph 11 mph 62% 0.00 in 39 W/m2
19:30 73.2 °F 59.9 °F 29.94 in NNW 3 mph 8 mph 63% 0.00 in 29 W/m2
19:40 72.7 °F 59.4 °F 29.94 in NNW 3 mph 9 mph 63% 0.00 in 15 W/m2
19:50 72 °F 59.1 °F 29.94 in NNW 3 mph 8 mph 64% 0.00 in 8 W/m2
20:00 71.2 °F 58.9 °F 29.94 in NNW 2 mph 7 mph 65% 0.00 in 0 W/m2
20:10 70.7 °F 58.4 °F 29.94 in NNW 2 mph 7 mph 65% 0.00 in 0 W/m2
20:20 70 °F 58.6 °F 29.94 in NNW 5 mph 9 mph 67% 0.00 in 0 W/m2
20:30 69.5 °F 58.1 °F 29.95 in NW 3 mph 7 mph 67% 0.00 in 0 W/m2
20:40 69.1 °F 58.1 °F 29.95 in NW 1 mph 6 mph 68% 0.00 in 0 W/m2
20:50 68.5 °F 58 °F 29.96 in NW 2 mph 4 mph 69% 0.00 in 0 W/m2
21:00 68.2 °F 57.6 °F 29.96 in NW 1 mph 4 mph 69% 0.00 in 0 W/m2
21:10 67.6 °F 57.1 °F 29.96 in NW 1 mph 3 mph 69% 0.00 in 0 W/m2
21:20 67.2 °F 57 °F 29.97 in West 2 mph 5 mph 70% 0.00 in 0 W/m2
21:30 66.6 °F 57.6 °F 29.97 in NW 3 mph 6 mph 73% 0.00 in 0 W/m2
21:40 66 °F 57.1 °F 29.97 in WNW 2 mph 6 mph 73% 0.00 in 0 W/m2
21:50 65.5 °F 57 °F 29.98 in WNW 1 mph 5 mph 74% 0.00 in 0 W/m2
22:00 65 °F 56.5 °F 29.98 in WNW 2 mph 5 mph 74% 0.00 in 0 W/m2
22:10 64.5 °F 56.4 °F 29.99 in WNW 3 mph 7 mph 75% 0.00 in 0 W/m2
22:20 64 °F 56.7 °F 29.99 in NW 2 mph 7 mph 77% 0.00 in 0 W/m2
22:30 63.7 °F 56.3 °F 29.99 in NNW 2 mph 6 mph 77% 0.00 in 0 W/m2
22:40 63.5 °F 56.5 °F 29.99 in Calm   5 mph 78% 0.00 in 0 W/m2
23:00 62.7 °F 56 °F 29.99 in Calm   2 mph 79% 0.00 in 0 W/m2
23:10 62.2 °F 55.6 °F 30.00 in Calm   2 mph 79% 0.00 in 0 W/m2
23:20 61.9 °F 55.6 °F 30.00 in Calm   2 mph 80% 0.00 in 0 W/m2
23:30 61.5 °F 55.3 °F 30.00 in WNW 1 mph 2 mph 80% 0.00 in 0 W/m2
23:40 61.2 °F 54.9 °F 30.00 in Calm   2 mph 80% 0.00 in 0 W/m2
23:50 60.8 °F 54.9 °F 30.00 in Calm   2 mph 81% 0.00 in 0 W/m2
Knjazevac, Serbia
Compliments of Weather Underground - 2 mb